sensor_id;sensor_type;location;lat;lon;timestamp;pressure;altitude;pressure_sealevel;temperature;humidity
64066;BME280;50318;54.760;9.408;2023-02-03T00:00:38;100952.50;;;9.06;79.67
64066;BME280;50318;54.760;9.408;2023-02-03T00:03:04;100955.59;;;9.20;78.85
64066;BME280;50318;54.760;9.408;2023-02-03T00:05:33;100963.09;;;9.33;78.82
64066;BME280;50318;54.760;9.408;2023-02-03T00:08:02;100933.31;;;9.35;78.71
64066;BME280;50318;54.760;9.408;2023-02-03T00:10:29;100923.47;;;9.50;78.74
64066;BME280;50318;54.760;9.408;2023-02-03T00:12:55;100924.13;;;9.54;78.40
64066;BME280;50318;54.760;9.408;2023-02-03T00:15:25;100932.78;;;9.65;78.61
64066;BME280;50318;54.760;9.408;2023-02-03T00:17:55;100913.19;;;9.54;78.58
64066;BME280;50318;54.760;9.408;2023-02-03T00:20:21;100929.72;;;9.63;78.96
64066;BME280;50318;54.760;9.408;2023-02-03T00:22:48;100923.25;;;9.70;78.69
64066;BME280;50318;54.760;9.408;2023-02-03T00:25:17;100927.22;;;9.81;78.30
64066;BME280;50318;54.760;9.408;2023-02-03T00:27:44;100927.78;;;9.76;78.43
64066;BME280;50318;54.760;9.408;2023-02-03T00:30:11;100925.91;;;9.86;78.09
64066;BME280;50318;54.760;9.408;2023-02-03T00:32:37;100912.31;;;9.82;77.81
64066;BME280;50318;54.760;9.408;2023-02-03T00:35:15;100910.13;;;9.77;77.80
64066;BME280;50318;54.760;9.408;2023-02-03T00:37:51;100905.72;;;9.93;77.77
64066;BME280;50318;54.760;9.408;2023-02-03T00:40:23;100914.06;;;10.02;77.64
64066;BME280;50318;54.760;9.408;2023-02-03T00:42:52;100919.94;;;10.13;77.52
64066;BME280;50318;54.760;9.408;2023-02-03T00:45:19;100900.44;;;10.11;77.10
64066;BME280;50318;54.760;9.408;2023-02-03T00:47:45;100903.16;;;10.11;77.03
64066;BME280;50318;54.760;9.408;2023-02-03T00:50:15;100890.81;;;10.06;77.10
64066;BME280;50318;54.760;9.408;2023-02-03T00:52:41;100885.63;;;10.08;76.95
64066;BME280;50318;54.760;9.408;2023-02-03T00:55:17;100875.44;;;10.09;76.98
64066;BME280;50318;54.760;9.408;2023-02-03T00:57:43;100876.66;;;10.08;76.21
64066;BME280;50318;54.760;9.408;2023-02-03T01:00:15;100852.75;;;10.08;76.56
64066;BME280;50318;54.760;9.408;2023-02-03T01:02:43;100840.25;;;10.07;76.74
64066;BME280;50318;54.760;9.408;2023-02-03T01:05:09;100838.91;;;10.12;76.50
64066;BME280;50318;54.760;9.408;2023-02-03T01:07:36;100844.41;;;10.12;77.07
64066;BME280;50318;54.760;9.408;2023-02-03T01:10:04;100841.53;;;10.15;76.50
64066;BME280;50318;54.760;9.408;2023-02-03T01:12:33;100857.88;;;10.19;76.48
64066;BME280;50318;54.760;9.408;2023-02-03T01:14:59;100833.75;;;10.14;76.66
64066;BME280;50318;54.760;9.408;2023-02-03T01:17:25;100825.84;;;10.16;76.46
64066;BME280;50318;54.760;9.408;2023-02-03T01:19:52;100817.22;;;10.18;76.34
64066;BME280;50318;54.760;9.408;2023-02-03T01:22:21;100818.41;;;10.29;76.15
64066;BME280;50318;54.760;9.408;2023-02-03T01:24:58;100805.25;;;10.24;76.66
64066;BME280;50318;54.760;9.408;2023-02-03T01:27:34;100821.25;;;10.13;76.27
64066;BME280;50318;54.760;9.408;2023-02-03T01:30:03;100823.13;;;10.16;76.08
64066;BME280;50318;54.760;9.408;2023-02-03T01:32:33;100823.03;;;10.20;76.37
64066;BME280;50318;54.760;9.408;2023-02-03T01:35:03;100803.94;;;10.16;76.41
64066;BME280;50318;54.760;9.408;2023-02-03T01:37:41;100814.69;;;10.23;76.09
64066;BME280;50318;54.760;9.408;2023-02-03T01:40:07;100826.63;;;10.29;76.31
64066;BME280;50318;54.760;9.408;2023-02-03T01:42:35;100826.94;;;10.31;76.23
64066;BME280;50318;54.760;9.408;2023-02-03T01:45:01;100808.84;;;10.34;76.02
64066;BME280;50318;54.760;9.408;2023-02-03T01:47:38;100803.16;;;10.28;75.61
64066;BME280;50318;54.760;9.408;2023-02-03T01:50:24;100793.16;;;10.34;75.80
64066;BME280;50318;54.760;9.408;2023-02-03T01:53:07;100779.69;;;10.27;75.84
64066;BME280;50318;54.760;9.408;2023-02-03T01:55:42;100766.63;;;10.31;75.92
64066;BME280;50318;54.760;9.408;2023-02-03T01:58:22;100769.94;;;10.26;75.61
64066;BME280;50318;54.760;9.408;2023-02-03T02:00:53;100774.41;;;10.33;75.71
64066;BME280;50318;54.760;9.408;2023-02-03T02:03:30;100773.78;;;10.29;75.92
64066;BME280;50318;54.760;9.408;2023-02-03T02:06:03;100780.00;;;10.29;75.77
64066;BME280;50318;54.760;9.408;2023-02-03T02:08:36;100769.94;;;10.26;75.80
64066;BME280;50318;54.760;9.408;2023-02-03T02:11:06;100757.31;;;10.29;75.55
64066;BME280;50318;54.760;9.408;2023-02-03T02:13:33;100741.06;;;10.34;76.12
64066;BME280;50318;54.760;9.408;2023-02-03T02:21:51;100755.41;;;10.38;75.47
64066;BME280;50318;54.760;9.408;2023-02-03T02:41:47;100724.59;;;10.34;75.93
64066;BME280;50318;54.760;9.408;2023-02-03T02:44:24;100707.56;;;10.39;75.95
64066;BME280;50318;54.760;9.408;2023-02-03T02:46:58;100700.69;;;10.35;75.61
64066;BME280;50318;54.760;9.408;2023-02-03T02:49:38;100696.09;;;10.32;75.55
64066;BME280;50318;54.760;9.408;2023-02-03T02:52:13;100690.31;;;10.30;75.67
64066;BME280;50318;54.760;9.408;2023-02-03T02:54:48;100696.09;;;10.32;75.18
64066;BME280;50318;54.760;9.408;2023-02-03T02:57:23;100720.06;;;10.40;75.80
64066;BME280;50318;54.760;9.408;2023-02-03T02:59:52;100718.53;;;10.39;75.55
64066;BME280;50318;54.760;9.408;2023-02-03T03:02:19;100695.53;;;10.37;75.34
64066;BME280;50318;54.760;9.408;2023-02-03T03:04:54;100692.31;;;10.38;75.44
64066;BME280;50318;54.760;9.408;2023-02-03T03:07:25;100696.88;;;10.32;75.84
64066;BME280;50318;54.760;9.408;2023-02-03T03:10:00;100693.84;;;10.39;75.98
64066;BME280;50318;54.760;9.408;2023-02-03T03:12:35;100698.25;;;10.37;75.53
64066;BME280;50318;54.760;9.408;2023-02-03T03:17:34;100697.94;;;10.35;75.77
64066;BME280;50318;54.760;9.408;2023-02-03T03:20:24;100704.78;;;10.30;76.00
64066;BME280;50318;54.760;9.408;2023-02-03T03:23:35;100685.53;;;10.21;76.24
64066;BME280;50318;54.760;9.408;2023-02-03T03:26:34;100683.56;;;10.22;76.38
64066;BME280;50318;54.760;9.408;2023-02-03T03:29:32;100668.19;;;10.24;76.40
64066;BME280;50318;54.760;9.408;2023-02-03T03:32:22;100700.13;;;10.18;76.23
64066;BME280;50318;54.760;9.408;2023-02-03T03:34:49;100693.06;;;10.30;76.48
64066;BME280;50318;54.760;9.408;2023-02-03T03:37:40;100686.81;;;10.29;75.81
64066;BME280;50318;54.760;9.408;2023-02-03T03:40:19;100681.13;;;10.24;75.91
64066;BME280;50318;54.760;9.408;2023-02-03T03:43:01;100671.44;;;10.32;76.01
64066;BME280;50318;54.760;9.408;2023-02-03T03:46:08;100676.09;;;10.22;76.23
64066;BME280;50318;54.760;9.408;2023-02-03T03:48:30;100654.53;;;10.33;75.99
64066;BME280;50318;54.760;9.408;2023-02-03T03:51:03;100664.41;;;10.31;76.20
64066;BME280;50318;54.760;9.408;2023-02-03T03:53:33;100662.63;;;10.37;75.99
64066;BME280;50318;54.760;9.408;2023-02-03T03:56:05;100648.78;;;10.40;75.92
64066;BME280;50318;54.760;9.408;2023-02-03T03:58:36;100655.81;;;10.41;75.44
64066;BME280;50318;54.760;9.408;2023-02-03T04:01:07;100642.88;;;10.42;75.51
64066;BME280;50318;54.760;9.408;2023-02-03T04:03:43;100649.13;;;10.42;75.83
64066;BME280;50318;54.760;9.408;2023-02-03T04:06:12;100639.06;;;10.49;75.39
64066;BME280;50318;54.760;9.408;2023-02-03T04:08:38;100627.94;;;10.43;75.34
64066;BME280;50318;54.760;9.408;2023-02-03T04:11:05;100645.00;;;10.47;75.17
64066;BME280;50318;54.760;9.408;2023-02-03T04:13:32;100616.53;;;10.44;75.11
64066;BME280;50318;54.760;9.408;2023-02-03T04:16:00;100616.06;;;10.46;75.37
64066;BME280;50318;54.760;9.408;2023-02-03T04:18:27;100614.34;;;10.39;75.45
64066;BME280;50318;54.760;9.408;2023-02-03T04:20:53;100626.06;;;10.40;75.48
64066;BME280;50318;54.760;9.408;2023-02-03T04:23:23;100600.78;;;10.36;75.37
64066;BME280;50318;54.760;9.408;2023-02-03T04:25:49;100608.84;;;10.39;75.63
64066;BME280;50318;54.760;9.408;2023-02-03T04:28:18;100612.06;;;10.38;75.80
64066;BME280;50318;54.760;9.408;2023-02-03T04:30:45;100603.38;;;10.39;75.45
64066;BME280;50318;54.760;9.408;2023-02-03T04:33:18;100606.31;;;10.45;75.38
64066;BME280;50318;54.760;9.408;2023-02-03T04:35:45;100602.34;;;10.46;75.50
64066;BME280;50318;54.760;9.408;2023-02-03T04:38:13;100604.03;;;10.43;75.36
64066;BME280;50318;54.760;9.408;2023-02-03T04:40:45;100594.81;;;10.28;75.34
64066;BME280;50318;54.760;9.408;2023-02-03T04:43:12;100581.19;;;10.47;75.55
64066;BME280;50318;54.760;9.408;2023-02-03T04:45:43;100583.00;;;10.50;75.17
64066;BME280;50318;54.760;9.408;2023-02-03T04:48:10;100591.25;;;10.50;75.55
64066;BME280;50318;54.760;9.408;2023-02-03T04:50:36;100580.88;;;10.54;75.05
64066;BME280;50318;54.760;9.408;2023-02-03T04:53:03;100566.88;;;10.52;75.55
64066;BME280;50318;54.760;9.408;2023-02-03T04:55:33;100548.13;;;10.50;75.18
64066;BME280;50318;54.760;9.408;2023-02-03T04:57:59;100569.31;;;10.59;75.16
64066;BME280;50318;54.760;9.408;2023-02-03T05:00:28;100545.69;;;10.43;75.41
64066;BME280;50318;54.760;9.408;2023-02-03T05:02:55;100544.63;;;10.50;75.38
64066;BME280;50318;54.760;9.408;2023-02-03T05:05:21;100556.94;;;10.45;75.40
64066;BME280;50318;54.760;9.408;2023-02-03T05:07:48;100550.72;;;10.44;75.70
64066;BME280;50318;54.760;9.408;2023-02-03T05:10:14;100518.56;;;10.45;75.63
64066;BME280;50318;54.760;9.408;2023-02-03T05:12:40;100533.34;;;10.57;75.57
64066;BME280;50318;54.760;9.408;2023-02-03T05:15:07;100527.25;;;10.53;75.07
64066;BME280;50318;54.760;9.408;2023-02-03T05:17:39;100505.31;;;10.43;75.40
64066;BME280;50318;54.760;9.408;2023-02-03T05:20:09;100522.53;;;10.53;75.41
64066;BME280;50318;54.760;9.408;2023-02-03T05:22:35;100503.78;;;10.52;75.61
64066;BME280;50318;54.760;9.408;2023-02-03T05:25:02;100526.34;;;10.47;75.23
64066;BME280;50318;54.760;9.408;2023-02-03T05:27:30;100494.19;;;10.47;75.64
64066;BME280;50318;54.760;9.408;2023-02-03T05:29:59;100491.31;;;10.51;75.92
64066;BME280;50318;54.760;9.408;2023-02-03T05:32:31;100496.94;;;10.56;75.92
64066;BME280;50318;54.760;9.408;2023-02-03T05:34:57;100490.06;;;10.42;75.38
64066;BME280;50318;54.760;9.408;2023-02-03T05:37:27;100492.06;;;10.51;75.69
64066;BME280;50318;54.760;9.408;2023-02-03T05:39:56;100493.88;;;10.45;75.94
64066;BME280;50318;54.760;9.408;2023-02-03T05:42:22;100485.66;;;10.45;76.27
64066;BME280;50318;54.760;9.408;2023-02-03T05:44:54;100476.38;;;10.42;76.53
64066;BME280;50318;54.760;9.408;2023-02-03T05:47:20;100481.22;;;10.38;76.90
64066;BME280;50318;54.760;9.408;2023-02-03T05:49:47;100471.94;;;10.45;76.83
64066;BME280;50318;54.760;9.408;2023-02-03T05:52:14;100475.91;;;10.53;76.77
64066;BME280;50318;54.760;9.408;2023-02-03T05:54:40;100464.00;;;10.38;76.98
64066;BME280;50318;54.760;9.408;2023-02-03T05:57:08;100448.19;;;10.42;76.85
64066;BME280;50318;54.760;9.408;2023-02-03T05:59:34;100440.53;;;10.37;76.98
64066;BME280;50318;54.760;9.408;2023-02-03T06:02:01;100438.25;;;10.26;77.36
64066;BME280;50318;54.760;9.408;2023-02-03T06:04:27;100423.00;;;10.25;77.65
64066;BME280;50318;54.760;9.408;2023-02-03T06:06:54;100450.88;;;10.24;77.81
64066;BME280;50318;54.760;9.408;2023-02-03T06:09:20;100455.59;;;10.23;77.89
64066;BME280;50318;54.760;9.408;2023-02-03T06:11:46;100445.84;;;10.22;77.93
64066;BME280;50318;54.760;9.408;2023-02-03T06:14:12;100450.72;;;10.27;77.80
64066;BME280;50318;54.760;9.408;2023-02-03T06:16:38;100452.84;;;10.23;77.82
64066;BME280;50318;54.760;9.408;2023-02-03T06:19:05;100455.16;;;10.25;77.70
64066;BME280;50318;54.760;9.408;2023-02-03T06:21:32;100458.66;;;10.34;77.08
64066;BME280;50318;54.760;9.408;2023-02-03T06:24:05;100450.88;;;10.33;77.07
64066;BME280;50318;54.760;9.408;2023-02-03T06:26:37;100442.22;;;10.34;76.99
64066;BME280;50318;54.760;9.408;2023-02-03T06:29:06;100444.00;;;10.19;77.37
64066;BME280;50318;54.760;9.408;2023-02-03T06:31:35;100449.22;;;10.26;77.37
64066;BME280;50318;54.760;9.408;2023-02-03T06:34:01;100451.00;;;10.20;76.81
64066;BME280;50318;54.760;9.408;2023-02-03T06:36:30;100444.19;;;10.25;76.60
64066;BME280;50318;54.760;9.408;2023-02-03T06:38:57;100444.31;;;10.21;75.92
64066;BME280;50318;54.760;9.408;2023-02-03T06:41:23;100454.53;;;10.21;76.10
64066;BME280;50318;54.760;9.408;2023-02-03T06:43:49;100453.75;;;10.20;76.43
64066;BME280;50318;54.760;9.408;2023-02-03T06:46:15;100455.97;;;10.12;76.04
64066;BME280;50318;54.760;9.408;2023-02-03T06:48:42;100463.38;;;10.25;75.46
64066;BME280;50318;54.760;9.408;2023-02-03T06:51:08;100471.16;;;10.35;75.04
64066;BME280;50318;54.760;9.408;2023-02-03T06:53:34;100476.03;;;10.31;74.11
64066;BME280;50318;54.760;9.408;2023-02-03T06:56:07;100451.78;;;10.30;73.46
64066;BME280;50318;54.760;9.408;2023-02-03T06:58:34;100468.56;;;10.32;73.74
64066;BME280;50318;54.760;9.408;2023-02-03T07:01:00;100461.53;;;10.22;73.34
64066;BME280;50318;54.760;9.408;2023-02-03T07:03:26;100466.94;;;10.12;73.19
64066;BME280;50318;54.760;9.408;2023-02-03T07:05:52;100486.59;;;10.11;73.50
64066;BME280;50318;54.760;9.408;2023-02-03T07:08:18;100495.81;;;10.26;72.74
64066;BME280;50318;54.760;9.408;2023-02-03T07:10:45;100485.59;;;10.27;72.45
64066;BME280;50318;54.760;9.408;2023-02-03T07:13:11;100491.91;;;10.14;72.61
64066;BME280;50318;54.760;9.408;2023-02-03T07:15:46;100504.28;;;10.19;72.42
64066;BME280;50318;54.760;9.408;2023-02-03T07:18:15;100476.22;;;10.15;72.14
64066;BME280;50318;54.760;9.408;2023-02-03T07:20:45;100513.81;;;10.05;71.69
64066;BME280;50318;54.760;9.408;2023-02-03T07:23:11;100513.34;;;9.98;72.57
64066;BME280;50318;54.760;9.408;2023-02-03T07:25:41;100503.63;;;10.06;72.19
64066;BME280;50318;54.760;9.408;2023-02-03T07:28:07;100532.25;;;10.14;72.07
64066;BME280;50318;54.760;9.408;2023-02-03T07:30:34;100502.41;;;10.07;72.40
64066;BME280;50318;54.760;9.408;2023-02-03T07:33:00;100530.09;;;10.00;71.41
64066;BME280;50318;54.760;9.408;2023-02-03T07:35:29;100530.88;;;10.09;71.54
64066;BME280;50318;54.760;9.408;2023-02-03T07:38:03;100529.81;;;10.07;70.80
64066;BME280;50318;54.760;9.408;2023-02-03T07:40:29;100525.84;;;10.08;70.72
64066;BME280;50318;54.760;9.408;2023-02-03T07:42:55;100527.09;;;9.85;70.97
64066;BME280;50318;54.760;9.408;2023-02-03T07:45:21;100524.91;;;9.71;71.41
64066;BME280;50318;54.760;9.408;2023-02-03T07:47:47;100557.81;;;9.80;70.33
64066;BME280;50318;54.760;9.408;2023-02-03T07:50:14;100527.06;;;9.76;69.45
64066;BME280;50318;54.760;9.408;2023-02-03T07:52:40;100540.50;;;9.83;69.66
64066;BME280;50318;54.760;9.408;2023-02-03T07:55:07;100548.53;;;9.77;69.11
64066;BME280;50318;54.760;9.408;2023-02-03T07:57:33;100541.22;;;9.74;68.72
64066;BME280;50318;54.760;9.408;2023-02-03T07:59:59;100560.84;;;9.73;68.86
64066;BME280;50318;54.760;9.408;2023-02-03T08:02:26;100563.75;;;9.78;68.91
64066;BME280;50318;54.760;9.408;2023-02-03T08:04:52;100557.34;;;9.72;68.63
64066;BME280;50318;54.760;9.408;2023-02-03T08:07:18;100567.53;;;9.72;67.84
64066;BME280;50318;54.760;9.408;2023-02-03T08:09:45;100574.28;;;9.58;68.47
64066;BME280;50318;54.760;9.408;2023-02-03T08:12:14;100569.56;;;9.59;68.56
64066;BME280;50318;54.760;9.408;2023-02-03T08:14:41;100571.41;;;9.62;67.89
64066;BME280;50318;54.760;9.408;2023-02-03T08:17:07;100568.53;;;9.65;67.62
64066;BME280;50318;54.760;9.408;2023-02-03T08:19:33;100580.50;;;9.59;68.25
64066;BME280;50318;54.760;9.408;2023-02-03T08:21:59;100595.81;;;9.47;67.60
64066;BME280;50318;54.760;9.408;2023-02-03T08:24:26;100565.88;;;9.52;67.58
64066;BME280;50318;54.760;9.408;2023-02-03T08:26:52;100596.81;;;9.62;67.20
64066;BME280;50318;54.760;9.408;2023-02-03T08:29:21;100597.06;;;9.55;66.67
64066;BME280;50318;54.760;9.408;2023-02-03T08:31:47;100611.06;;;9.57;66.80
64066;BME280;50318;54.760;9.408;2023-02-03T08:34:13;100603.91;;;9.72;66.08
64066;BME280;50318;54.760;9.408;2023-02-03T08:36:42;100607.09;;;9.71;65.52
64066;BME280;50318;54.760;9.408;2023-02-03T08:39:09;100592.81;;;9.76;65.86
64066;BME280;50318;54.760;9.408;2023-02-03T08:41:38;100610.00;;;9.98;65.50
64066;BME280;50318;54.760;9.408;2023-02-03T08:44:04;100610.13;;;9.95;65.98
64066;BME280;50318;54.760;9.408;2023-02-03T08:46:30;100636.41;;;10.14;65.84
64066;BME280;50318;54.760;9.408;2023-02-03T08:48:59;100634.84;;;10.04;66.15
64066;BME280;50318;54.760;9.408;2023-02-03T08:51:25;100643.84;;;10.04;66.54
64066;BME280;50318;54.760;9.408;2023-02-03T08:53:52;100627.88;;;10.12;66.42
64066;BME280;50318;54.760;9.408;2023-02-03T08:56:18;100609.00;;;10.14;66.10
64066;BME280;50318;54.760;9.408;2023-02-03T08:58:44;100621.28;;;10.00;66.37
64066;BME280;50318;54.760;9.408;2023-02-03T09:01:14;100614.97;;;9.91;66.61
64066;BME280;50318;54.760;9.408;2023-02-03T09:03:41;100610.19;;;9.82;66.80
64066;BME280;50318;54.760;9.408;2023-02-03T09:06:10;100630.00;;;9.86;66.76
64066;BME280;50318;54.760;9.408;2023-02-03T09:08:38;100641.22;;;9.79;67.71
64066;BME280;50318;54.760;9.408;2023-02-03T09:11:09;100644.66;;;9.70;68.47
64066;BME280;50318;54.760;9.408;2023-02-03T09:13:38;100653.38;;;9.43;69.46
64066;BME280;50318;54.760;9.408;2023-02-03T09:16:06;100660.31;;;9.35;70.02
64066;BME280;50318;54.760;9.408;2023-02-03T09:18:32;100660.44;;;9.32;69.94
64066;BME280;50318;54.760;9.408;2023-02-03T09:21:07;100673.44;;;9.40;70.28
64066;BME280;50318;54.760;9.408;2023-02-03T09:23:36;100657.19;;;9.11;70.61
64066;BME280;50318;54.760;9.408;2023-02-03T09:26:07;100677.44;;;9.14;69.63
64066;BME280;50318;54.760;9.408;2023-02-03T09:28:38;100655.22;;;9.12;69.63
64066;BME280;50318;54.760;9.408;2023-02-03T09:31:09;100669.75;;;9.21;70.17
64066;BME280;50318;54.760;9.408;2023-02-03T09:33:36;100684.94;;;9.48;69.96
64066;BME280;50318;54.760;9.408;2023-02-03T09:36:04;100689.88;;;9.40;69.93
64066;BME280;50318;54.760;9.408;2023-02-03T09:38:31;100677.06;;;9.37;70.49
64066;BME280;50318;54.760;9.408;2023-02-03T09:46:06;100691.56;;;9.60;70.17
64066;BME280;50318;54.760;9.408;2023-02-03T09:49:28;100681.84;;;9.59;69.79
64066;BME280;50318;54.760;9.408;2023-02-03T09:51:51;100677.72;;;9.76;68.38
64066;BME280;50318;54.760;9.408;2023-02-03T09:54:25;100708.94;;;9.78;69.42
64066;BME280;50318;54.760;9.408;2023-02-03T09:56:53;100690.66;;;9.75;68.53
64066;BME280;50318;54.760;9.408;2023-02-03T09:59:20;100720.94;;;9.94;68.55
64066;BME280;50318;54.760;9.408;2023-02-03T10:02:06;100707.69;;;10.14;67.44
64066;BME280;50318;54.760;9.408;2023-02-03T10:04:44;100733.31;;;10.20;67.21
64066;BME280;50318;54.760;9.408;2023-02-03T10:18:03;100737.22;;;10.54;65.41
64066;BME280;50318;54.760;9.408;2023-02-03T10:23:35;100751.34;;;10.74;64.63
64066;BME280;50318;54.760;9.408;2023-02-03T10:26:08;100729.38;;;10.65;64.23
64066;BME280;50318;54.760;9.408;2023-02-03T10:28:50;100759.22;;;10.63;65.09
64066;BME280;50318;54.760;9.408;2023-02-03T10:31:23;100740.22;;;10.47;64.72
64066;BME280;50318;54.760;9.408;2023-02-03T10:34:00;100742.13;;;10.37;64.94
64066;BME280;50318;54.760;9.408;2023-02-03T10:36:48;100752.09;;;10.43;65.37
64066;BME280;50318;54.760;9.408;2023-02-03T10:39:23;100729.16;;;10.59;64.81
64066;BME280;50318;54.760;9.408;2023-02-03T10:41:50;100740.59;;;10.58;64.76
64066;BME280;50318;54.760;9.408;2023-02-03T10:44:16;100769.31;;;10.66;65.38
64066;BME280;50318;54.760;9.408;2023-02-03T10:46:44;100779.28;;;10.82;64.90
64066;BME280;50318;54.760;9.408;2023-02-03T10:49:11;100799.94;;;10.95;63.59
64066;BME280;50318;54.760;9.408;2023-02-03T10:51:46;100799.03;;;10.98;64.03
64066;BME280;50318;54.760;9.408;2023-02-03T10:54:32;100784.06;;;10.90;63.14
64066;BME280;50318;54.760;9.408;2023-02-03T10:57:17;100783.84;;;10.75;63.51
64066;BME280;50318;54.760;9.408;2023-02-03T10:59:45;100790.88;;;10.86;62.84
64066;BME280;50318;54.760;9.408;2023-02-03T11:02:27;100787.41;;;10.63;63.50
64066;BME280;50318;54.760;9.408;2023-02-03T11:07:42;100766.34;;;10.60;63.51
64066;BME280;50318;54.760;9.408;2023-02-03T11:13:23;100805.06;;;10.40;64.26
64066;BME280;50318;54.760;9.408;2023-02-03T11:26:29;100785.06;;;9.96;65.93
64066;BME280;50318;54.760;9.408;2023-02-03T11:28:59;100795.91;;;9.87;67.01
64066;BME280;50318;54.760;9.408;2023-02-03T11:31:29;100810.69;;;9.90;67.30
64066;BME280;50318;54.760;9.408;2023-02-03T11:34:01;100813.88;;;9.88;66.86
64066;BME280;50318;54.760;9.408;2023-02-03T11:36:30;100804.69;;;9.95;67.08
64066;BME280;50318;54.760;9.408;2023-02-03T11:39:16;100820.75;;;10.05;66.21
64066;BME280;50318;54.760;9.408;2023-02-03T11:41:43;100834.81;;;9.95;66.04
64066;BME280;50318;54.760;9.408;2023-02-03T11:44:15;100831.03;;;10.14;66.18
64066;BME280;50318;54.760;9.408;2023-02-03T11:46:43;100815.47;;;10.11;65.71
64066;BME280;50318;54.760;9.408;2023-02-03T11:55:02;100802.16;;;9.88;66.29
64066;BME280;50318;54.760;9.408;2023-02-03T12:06:23;100812.56;;;9.93;66.67
64066;BME280;50318;54.760;9.408;2023-02-03T12:26:19;100819.47;;;9.97;65.99
64066;BME280;50318;54.760;9.408;2023-02-03T12:32:11;100826.25;;;9.93;66.78
64066;BME280;50318;54.760;9.408;2023-02-03T12:37:43;100843.91;;;9.92;66.48
64066;BME280;50318;54.760;9.408;2023-02-03T12:41:03;100839.94;;;9.93;66.80
64066;BME280;50318;54.760;9.408;2023-02-03T12:46:03;100867.47;;;10.02;65.52
64066;BME280;50318;54.760;9.408;2023-02-03T12:51:09;100835.03;;;10.00;65.62
64066;BME280;50318;54.760;9.408;2023-02-03T12:53:46;100833.25;;;10.06;65.57
64066;BME280;50318;54.760;9.408;2023-02-03T12:56:26;100846.25;;;10.15;65.42
64066;BME280;50318;54.760;9.408;2023-02-03T12:59:01;100857.16;;;10.06;64.93
64066;BME280;50318;54.760;9.408;2023-02-03T13:01:37;100847.97;;;10.00;64.79
64066;BME280;50318;54.760;9.408;2023-02-03T13:12:35;100868.31;;;10.24;63.18
64066;BME280;50318;54.760;9.408;2023-02-03T13:20:27;100869.28;;;10.30;63.23
64066;BME280;50318;54.760;9.408;2023-02-03T13:22:54;100869.69;;;10.41;62.61
64066;BME280;50318;54.760;9.408;2023-02-03T13:25:22;100883.28;;;10.45;62.23
64066;BME280;50318;54.760;9.408;2023-02-03T13:31:09;100881.63;;;10.48;62.21
64066;BME280;50318;54.760;9.408;2023-02-03T13:44:11;100872.09;;;10.39;62.03
64066;BME280;50318;54.760;9.408;2023-02-03T13:46:39;100876.97;;;10.57;61.92
64066;BME280;50318;54.760;9.408;2023-02-03T13:49:07;100863.31;;;10.44;62.19
64066;BME280;50318;54.760;9.408;2023-02-03T13:51:42;100870.81;;;10.31;62.18
64066;BME280;50318;54.760;9.408;2023-02-03T13:57:02;100871.69;;;10.41;62.15
64066;BME280;50318;54.760;9.408;2023-02-03T14:07:36;100870.47;;;10.16;62.66
64066;BME280;50318;54.760;9.408;2023-02-03T14:25:19;100914.13;;;10.11;63.92
64066;BME280;50318;54.760;9.408;2023-02-03T14:27:47;100903.09;;;10.02;64.00
64066;BME280;50318;54.760;9.408;2023-02-03T14:30:23;100910.34;;;9.96;64.09
64066;BME280;50318;54.760;9.408;2023-02-03T14:32:53;100902.13;;;9.96;64.44
64066;BME280;50318;54.760;9.408;2023-02-03T14:35:35;100921.50;;;9.89;64.54
64066;BME280;50318;54.760;9.408;2023-02-03T14:38:12;100906.59;;;10.02;64.47
64066;BME280;50318;54.760;9.408;2023-02-03T14:40:52;100920.75;;;10.01;64.38
64066;BME280;50318;54.760;9.408;2023-02-03T14:43:42;100925.03;;;9.76;65.33
64066;BME280;50318;54.760;9.408;2023-02-03T14:49:19;100943.75;;;9.91;65.56
64066;BME280;50318;54.760;9.408;2023-02-03T15:08:01;101007.59;;;9.49;68.36
64066;BME280;50318;54.760;9.408;2023-02-03T15:10:39;100999.19;;;9.57;67.70
64066;BME280;50318;54.760;9.408;2023-02-03T15:13:25;100995.88;;;9.62;67.31
64066;BME280;50318;54.760;9.408;2023-02-03T15:16:13;101034.25;;;9.62;67.29
64066;BME280;50318;54.760;9.408;2023-02-03T15:18:41;101046.63;;;9.66;67.24
64066;BME280;50318;54.760;9.408;2023-02-03T15:21:15;101029.69;;;9.71;67.44
64066;BME280;50318;54.760;9.408;2023-02-03T15:23:44;101027.59;;;9.75;67.31
64066;BME280;50318;54.760;9.408;2023-02-03T15:28:52;101045.28;;;9.58;67.18
64066;BME280;50318;54.760;9.408;2023-02-03T15:33:51;101036.66;;;9.60;66.92
64066;BME280;50318;54.760;9.408;2023-02-03T15:36:23;101028.91;;;9.42;67.55
64066;BME280;50318;54.760;9.408;2023-02-03T15:38:59;101037.19;;;9.54;66.99
64066;BME280;50318;54.760;9.408;2023-02-03T15:41:29;101054.38;;;9.55;67.03
64066;BME280;50318;54.760;9.408;2023-02-03T15:44:12;101041.91;;;9.54;66.43
64066;BME280;50318;54.760;9.408;2023-02-03T15:46:44;101059.31;;;9.60;66.52
64066;BME280;50318;54.760;9.408;2023-02-03T15:52:05;101062.28;;;9.53;66.34
64066;BME280;50318;54.760;9.408;2023-02-03T15:54:37;101054.19;;;9.62;66.40
64066;BME280;50318;54.760;9.408;2023-02-03T15:57:09;101067.66;;;9.69;66.44
64066;BME280;50318;54.760;9.408;2023-02-03T15:59:41;101071.16;;;9.70;66.23
64066;BME280;50318;54.760;9.408;2023-02-03T16:04:47;101090.44;;;9.66;66.23
64066;BME280;50318;54.760;9.408;2023-02-03T16:07:42;101082.88;;;9.58;66.43
64066;BME280;50318;54.760;9.408;2023-02-03T16:10:31;101083.63;;;9.58;66.20
64066;BME280;50318;54.760;9.408;2023-02-03T16:13:24;101090.41;;;9.53;66.03
64066;BME280;50318;54.760;9.408;2023-02-03T16:16:12;101117.16;;;9.62;66.22
64066;BME280;50318;54.760;9.408;2023-02-03T16:18:49;101116.16;;;9.56;65.89
64066;BME280;50318;54.760;9.408;2023-02-03T16:27:30;101142.78;;;9.56;66.11